Johnson, New York
Current Conditions -  °F | °C
As of 2:53 PM on Monday 22 Dec 2014 (Local Time) from KFWN Reporting Station
Haze Haze  
Wind Chill: 31°   Ceiling: 900
Heat Index: 35°   Visibility: 6mi
Dew Point: 31°   Wind: 5mph
Humidity: 85%   Direction: 20°NNE
Pressure: 30.23"   Gusts: NA
Location:  41.37°N, 74.51°W
Report Text: KFWN 221953Z AUTO 02004KT 6SM BR OVC009 02/M01 A3023 RMK AO2 SLP242 T00171006
Loading
Personal Weather Stations






























Interactive Weather Map New forecast layout! Learn more

10-Day Weather Forecast

Advertisements
Track Severe Weather on mobile